Time;durP1;ratioP1;P1;durP2;ratioP2;P2;SDS_P1;SDS_P2;PMS_P1;PMS_P2;Temp;Humidity;BMP_temperature;BMP_pressure;BME280_temperature;BME280_humidity;BME280_pressure;Samples;Min_cycle;Max_cycle;Signal;HPM_P1;HPM_P2
2022/07/29 00:00:20;;;;;;;6.57;1.07;;;;;;;-150.27;100.00;61272.81;5268310;28;20082;-76
2022/07/29 00:02:51;;;;;;;5.80;1.70;;;;;;;-150.27;100.00;61272.81;5269861;28;20861;-76
2022/07/29 00:05:22;;;;;;;4.70;1.50;;;;;;;-150.27;100.00;61272.81;5269367;28;20047;-76
2022/07/29 00:07:54;;;;;;;5.47;1.30;;;;;;;-150.27;100.00;61272.81;5284375;28;20043;-77
2022/07/29 00:10:25;;;;;;;5.60;1.60;;;;;;;-150.27;100.00;61272.81;5270557;28;20475;-76
2022/07/29 00:12:56;;;;;;;4.83;1.70;;;;;;;-150.27;100.00;61272.81;5267175;28;20060;-77
2022/07/29 00:15:28;;;;;;;6.90;1.73;;;;;;;-150.27;100.00;61272.81;5268385;28;20020;-76
2022/07/29 00:17:59;;;;;;;4.17;1.23;;;;;;;-150.27;100.00;61272.81;5269054;28;20074;-77
2022/07/29 00:20:30;;;;;;;4.63;1.60;;;;;;;-150.27;100.00;61272.81;5269199;28;20028;-76
2022/07/29 00:23:02;;;;;;;4.50;1.40;;;;;;;-150.27;100.00;61272.81;5284760;28;20024;-76
2022/07/29 00:25:34;;;;;;;4.77;2.20;;;;;;;-150.27;100.00;61272.81;5269420;28;20460;-75
2022/07/29 00:28:05;;;;;;;6.03;1.40;;;;;;;-150.27;100.00;61272.81;5268449;28;20143;-75
2022/07/29 00:30:36;;;;;;;3.57;1.00;;;;;;;-150.27;100.00;61272.81;5284324;28;20041;-76
2022/07/29 00:33:08;;;;;;;4.83;2.00;;;;;;;-150.27;100.00;61272.81;5267857;28;20067;-76
2022/07/29 00:35:46;;;;;;;6.27;1.30;;;;;;;-150.27;100.00;61272.81;5268805;28;20033;-77
2022/07/29 00:38:19;;;;;;;8.47;1.87;;;;;;;-150.27;100.00;61272.81;5270984;28;20035;-76
2022/07/29 00:40:51;;;;;;;6.00;1.50;;;;;;;-150.27;100.00;61272.81;5270115;28;20028;-77
2022/07/29 00:43:22;;;;;;;3.40;1.57;;;;;;;-150.27;100.00;61272.81;5271875;28;20031;-76
2022/07/29 00:45:53;;;;;;;6.83;2.20;;;;;;;-150.27;100.00;61272.81;5271840;28;20070;-76
2022/07/29 00:48:24;;;;;;;5.67;1.40;;;;;;;-150.27;100.00;61272.81;5273217;28;20028;-76
2022/07/29 00:50:58;;;;;;;3.70;1.50;;;;;;;-150.27;100.00;61272.81;5272050;28;20021;-76
2022/07/29 00:53:30;;;;;;;3.80;1.27;;;;;;;-150.27;100.00;61272.81;5272548;28;20043;-76
2022/07/29 00:56:01;;;;;;;6.97;1.30;;;;;;;-150.27;100.00;61272.81;5272177;28;20678;-76
2022/07/29 00:58:32;;;;;;;8.97;2.20;;;;;;;-150.27;100.00;61272.81;5272847;28;20047;-76
2022/07/29 01:01:04;;;;;;;7.40;2.03;;;;;;;-150.27;100.00;61272.81;5270729;28;20414;-77
2022/07/29 01:03:35;;;;;;;7.03;1.50;;;;;;;-150.27;100.00;61272.81;5272823;28;20024;-77
2022/07/29 01:06:06;;;;;;;3.17;1.30;;;;;;;-150.27;100.00;61272.81;5287940;28;20391;-77
2022/07/29 01:08:38;;;;;;;5.97;1.27;;;;;;;-150.27;100.00;61272.81;5271824;28;20571;-77
2022/07/29 01:11:10;;;;;;;5.00;1.30;;;;;;;-150.27;100.00;61272.81;5271602;28;20047;-78
2022/07/29 01:13:43;;;;;;;5.30;1.80;;;;;;;-150.27;100.00;61272.81;5271292;28;20275;-77
2022/07/29 01:16:41;;;;;;;4.93;1.70;;;;;;;-150.27;100.00;61272.81;5271640;28;20020;-77
2022/07/29 01:19:50;;;;;;;5.47;1.57;;;;;;;-150.27;100.00;61272.81;5271117;28;20043;-77
2022/07/29 01:22:31;;;;;;;8.90;1.70;;;;;;;-150.27;100.00;61272.81;5272212;28;20114;-77
2022/07/29 01:25:12;;;;;;;8.00;1.60;;;;;;;-150.27;100.00;61272.81;5272126;28;20470;-77
2022/07/29 01:28:17;;;;;;;4.93;1.40;;;;;;;-150.27;100.00;61272.81;5271394;28;20255;-77
2022/07/29 01:30:51;;;;;;;7.18;1.90;;;;;;;-150.27;100.00;61272.81;5249931;28;20060;-75
2022/07/29 01:36:20;;;;;;;8.17;3.30;;;;;;;-150.27;100.00;61272.81;5251417;28;20037;-76
2022/07/29 01:39:05;;;;;;;4.13;3.00;;;;;;;-150.27;100.00;61272.81;5257551;28;20020;-76
2022/07/29 01:41:42;;;;;;;7.50;3.13;;;;;;;-150.27;100.00;61272.81;5286798;28;20112;-75
2022/07/29 01:44:19;;;;;;;7.13;2.67;;;;;;;-150.27;100.00;61272.81;5269428;28;20029;-75
2022/07/29 01:46:58;;;;;;;5.27;2.10;;;;;;;-150.27;100.00;61272.81;5271294;28;20387;-75
2022/07/29 01:49:35;;;;;;;7.87;2.67;;;;;;;-150.27;100.00;61272.81;5271151;28;21205;-75
2022/07/29 01:52:15;;;;;;;7.10;2.33;;;;;;;-150.27;100.00;61272.81;5274172;28;20520;-75
2022/07/29 01:54:55;;;;;;;4.07;1.60;;;;;;;-150.27;100.00;61272.81;5270316;28;20032;-75
2022/07/29 01:57:31;;;;;;;5.07;2.00;;;;;;;-150.27;100.00;61272.81;5270473;28;20382;-75
2022/07/29 02:00:05;;;;;;;4.57;1.60;;;;;;;-150.27;100.00;61272.81;5270455;28;20041;-75
2022/07/29 02:02:38;;;;;;;4.65;2.00;;;;;;;-150.27;100.00;61272.81;5270445;28;20032;-75
2022/07/29 02:05:12;;;;;;;6.15;1.60;;;;;;;-150.27;100.00;61272.81;5285693;28;20116;-76
2022/07/29 02:07:47;;;;;;;4.70;1.90;;;;;;;-150.27;100.00;61272.81;5272251;28;20020;-76
2022/07/29 02:10:23;;;;;;;4.67;1.57;;;;;;;-150.27;100.00;61272.81;5271585;28;20402;-75
2022/07/29 02:12:56;;;;;;;6.50;1.90;;;;;;;-150.27;100.00;61272.81;5269403;28;20441;-75
2022/07/29 02:15:31;;;;;;;4.10;1.70;;;;;;;-150.27;100.00;61272.81;5268414;28;20043;-75
2022/07/29 02:18:23;;;;;;;5.43;1.70;;;;;;;-150.27;100.00;61272.81;5270843;28;20374;-75
2022/07/29 02:20:58;;;;;;;2.80;1.70;;;;;;;-150.27;100.00;61272.81;5269575;28;20024;-75
2022/07/29 02:23:31;;;;;;;3.80;1.67;;;;;;;-150.27;100.00;61272.81;5270329;28;20269;-75
2022/07/29 02:26:04;;;;;;;5.40;2.10;;;;;;;-150.27;100.00;61272.81;5272555;28;20028;-75
2022/07/29 02:28:36;;;;;;;7.80;2.20;;;;;;;-150.27;100.00;61272.81;5269203;28;20503;-76
2022/07/29 02:31:07;;;;;;;4.90;2.53;;;;;;;-150.27;100.00;61272.81;5270666;28;20031;-75
2022/07/29 02:33:40;;;;;;;6.37;2.23;;;;;;;-150.27;100.00;61272.81;5270946;28;20120;-75
2022/07/29 02:36:12;;;;;;;4.93;1.93;;;;;;;-150.27;100.00;61272.81;5284784;28;20021;-75
2022/07/29 02:38:50;;;;;;;4.63;1.90;;;;;;;-150.27;100.00;61272.81;5270384;28;20035;-74
2022/07/29 02:41:29;;;;;;;3.80;2.03;;;;;;;-150.27;100.00;61272.81;5270568;28;20475;-75
2022/07/29 02:44:09;;;;;;;7.90;1.53;;;;;;;-150.27;100.00;61272.81;5283765;28;20024;-75
2022/07/29 02:46:53;;;;;;;5.00;2.03;;;;;;;-150.27;100.00;61272.81;5270552;28;20032;-75
2022/07/29 02:49:40;;;;;;;6.40;2.10;;;;;;;-150.27;100.00;61272.81;5270291;28;20130;-75
2022/07/29 02:52:29;;;;;;;5.07;1.87;;;;;;;-150.27;100.00;61272.81;5285732;28;20792;-76
2022/07/29 02:55:03;;;;;;;4.80;1.67;;;;;;;-150.27;100.00;61272.81;5270114;28;20025;-75
2022/07/29 02:57:42;;;;;;;5.70;2.00;;;;;;;-150.27;100.00;61272.81;5270633;28;20028;-75
2022/07/29 03:00:15;;;;;;;5.57;2.27;;;;;;;-150.27;100.00;61272.81;5268875;28;20012;-76
2022/07/29 03:02:51;;;;;;;5.90;2.20;;;;;;;-150.27;100.00;61272.81;5269521;28;20037;-76
2022/07/29 03:05:22;;;;;;;6.90;2.33;;;;;;;-150.27;100.00;61272.81;5269965;28;20470;-75
2022/07/29 03:08:05;;;;;;;5.70;2.10;;;;;;;-150.27;100.00;61272.81;5270819;28;20035;-75
2022/07/29 03:10:40;;;;;;;5.40;2.30;;;;;;;-150.27;100.00;61272.81;5271176;28;20035;-75
2022/07/29 03:13:12;;;;;;;5.83;2.27;;;;;;;-150.27;100.00;61272.81;5269570;28;20044;-75
2022/07/29 03:15:45;;;;;;;6.57;2.77;;;;;;;-150.27;100.00;61272.81;5268723;28;20033;-75
2022/07/29 03:18:16;;;;;;;6.90;2.53;;;;;;;-150.27;100.00;61272.81;5269995;28;20121;-75
2022/07/29 03:20:48;;;;;;;9.17;2.07;;;;;;;-150.27;100.00;61272.81;5285568;28;20032;-75
2022/07/29 03:23:22;;;;;;;5.73;2.20;;;;;;;-150.27;100.00;61272.81;5269831;28;20545;-75
2022/07/29 03:25:54;;;;;;;;;;;;;;;-150.27;100.00;61272.81;5268466;28;20449;-75
2022/07/29 03:28:27;;;;;;;4.93;2.30;;;;;;;-150.27;100.00;61272.81;5266850;28;19917;-76
2022/07/29 03:30:58;;;;;;;5.97;2.30;;;;;;;-150.27;100.00;61272.81;5271704;28;20549;-75
2022/07/29 03:33:30;;;;;;;5.20;2.00;;;;;;;-150.27;100.00;61272.81;5273599;28;20111;-75
2022/07/29 03:36:02;;;;;;;4.60;2.10;;;;;;;-150.27;100.00;61272.81;5270164;28;20170;-75
2022/07/29 03:38:36;;;;;;;5.53;2.37;;;;;;;-150.27;100.00;61272.81;5272812;28;20781;-75
2022/07/29 03:41:11;;;;;;;7.60;1.85;;;;;;;-150.27;100.00;61272.81;5271430;28;20399;-75
2022/07/29 03:43:43;;;;;;;3.57;1.83;;;;;;;-150.27;100.00;61272.81;5267178;28;20609;-76
2022/07/29 03:46:17;;;;;;;4.67;2.37;;;;;;;-150.27;100.00;61272.81;5259190;28;20056;-75
2022/07/29 03:48:52;;;;;;;7.47;2.10;;;;;;;-150.27;100.00;61272.81;5269723;28;20075;-75
2022/07/29 03:51:25;;;;;;;6.00;2.00;;;;;;;-150.27;100.00;61272.81;5269659;28;20491;-75
2022/07/29 03:53:56;;;;;;;7.00;1.97;;;;;;;-150.27;100.00;61272.81;5268879;28;20113;-75
2022/07/29 03:56:29;;;;;;;6.17;2.40;;;;;;;-150.27;100.00;61272.81;5269536;28;20056;-76
2022/07/29 03:59:02;;;;;;;6.73;2.17;;;;;;;-150.27;100.00;61272.81;5267493;28;20029;-76
2022/07/29 04:01:38;;;;;;;3.90;1.83;;;;;;;-150.27;100.00;61272.81;5270059;28;20454;-76
2022/07/29 04:04:10;;;;;;;5.93;2.10;;;;;;;-150.27;100.00;61272.81;5267010;28;20442;-77
2022/07/29 04:06:43;;;;;;;6.30;2.17;;;;;;;-150.27;100.00;61272.81;5270881;28;20032;-76
2022/07/29 04:09:15;;;;;;;2.47;1.58;;;;;;;-150.27;100.00;61272.81;5272352;28;20043;-76
2022/07/29 04:11:46;;;;;;;4.03;1.70;;;;;;;-150.27;100.00;61272.81;5268671;28;20044;-76
2022/07/29 04:14:17;;;;;;;2.83;2.00;;;;;;;-150.27;100.00;61272.81;5270918;28;20115;-76
2022/07/29 04:16:48;;;;;;;4.60;1.70;;;;;;;-150.27;100.00;61272.81;5271919;28;20063;-76
2022/07/29 04:19:20;;;;;;;7.30;2.23;;;;;;;-150.27;100.00;61272.81;5273077;28;20036;-76
2022/07/29 04:21:54;;;;;;;4.37;2.00;;;;;;;-150.27;100.00;61272.81;5270928;28;20545;-76
2022/07/29 04:24:26;;;;;;;6.27;1.73;;;;;;;-150.27;100.00;61272.81;5276215;28;20091;-75
2022/07/29 04:26:57;;;;;;;6.77;1.90;;;;;;;-150.27;100.00;61272.81;5269970;28;20116;-77
2022/07/29 04:29:28;;;;;;;2.70;1.80;;;;;;;-150.27;100.00;61272.81;5271641;28;20213;-73
2022/07/29 04:32:00;;;;;;;6.07;2.10;;;;;;;-150.27;100.00;61272.81;5273566;28;20082;-74
2022/07/29 04:34:31;;;;;;;8.70;2.10;;;;;;;-150.27;100.00;61272.81;5273536;28;20031;-74
2022/07/29 04:37:02;;;;;;;3.43;2.00;;;;;;;-150.27;100.00;61272.81;5271626;28;20594;-76
2022/07/29 04:39:34;;;;;;;8.07;2.27;;;;;;;-150.27;100.00;61272.81;5273010;28;20479;-76
2022/07/29 04:42:05;;;;;;;5.53;1.73;;;;;;;-150.27;100.00;61272.81;5271866;28;20028;-77
2022/07/29 04:44:36;;;;;;;5.97;2.13;;;;;;;-150.27;100.00;61272.81;5270173;28;20028;-76
2022/07/29 04:47:08;;;;;;;4.90;2.10;;;;;;;-150.27;100.00;61272.81;5273225;28;20037;-73
2022/07/29 04:49:39;;;;;;;5.37;1.90;;;;;;;-150.27;100.00;61272.81;5272433;28;20085;-75
2022/07/29 04:52:11;;;;;;;8.20;1.97;;;;;;;-150.27;100.00;61272.81;5272819;28;20048;-74
2022/07/29 04:54:42;;;;;;;4.87;1.87;;;;;;;-150.27;100.00;61272.81;5273288;28;20032;-74
2022/07/29 04:57:13;;;;;;;7.67;2.13;;;;;;;-150.27;100.00;61272.81;5272198;28;20033;-74
2022/07/29 04:59:44;;;;;;;7.33;2.23;;;;;;;-150.27;100.00;61272.81;5272348;28;20034;-74
2022/07/29 05:02:16;;;;;;;5.57;2.40;;;;;;;-150.27;100.00;61272.81;5272013;28;20066;-74
2022/07/29 05:04:47;;;;;;;5.10;1.90;;;;;;;-150.27;100.00;61272.81;5272103;28;20565;-74
2022/07/29 05:07:19;;;;;;;5.87;2.10;;;;;;;-150.27;100.00;61272.81;5272805;28;20024;-73
2022/07/29 05:09:50;;;;;;;6.60;1.93;;;;;;;-150.27;100.00;61272.81;5271372;28;20035;-73
2022/07/29 05:12:23;;;;;;;7.20;2.33;;;;;;;-150.27;100.00;61272.81;5272277;28;20040;-73
2022/07/29 05:14:54;;;;;;;4.80;2.77;;;;;;;-150.27;100.00;61272.81;5270375;28;20067;-72
2022/07/29 05:17:26;;;;;;;7.10;2.47;;;;;;;-150.27;100.00;61272.81;5271735;28;20550;-73
2022/07/29 05:19:57;;;;;;;4.47;2.27;;;;;;;-150.27;100.00;61272.81;5270568;28;20029;-72
2022/07/29 05:22:29;;;;;;;4.63;2.70;;;;;;;-150.27;100.00;61272.81;5271429;28;21132;-74
2022/07/29 05:25:00;;;;;;;10.80;2.50;;;;;;;-150.27;100.00;61272.81;5269272;28;20033;-74
2022/07/29 05:27:31;;;;;;;3.97;2.17;;;;;;;-150.27;100.00;61272.81;5272710;28;20037;-74
2022/07/29 05:30:03;;;;;;;4.97;2.70;;;;;;;-150.27;100.00;61272.81;5270951;28;20028;-74
2022/07/29 05:32:34;;;;;;;6.37;2.67;;;;;;;-150.27;100.00;61272.81;5271123;28;20032;-74
2022/07/29 05:35:06;;;;;;;5.13;3.23;;;;;;;-150.27;100.00;61272.81;5287166;28;20036;-74
2022/07/29 05:37:37;;;;;;;6.60;2.57;;;;;;;-150.27;100.00;61272.81;5274328;28;20021;-74
2022/07/29 05:40:09;;;;;;;5.30;2.73;;;;;;;-150.27;100.00;61272.81;5273877;28;20025;-74
2022/07/29 05:42:41;;;;;;;6.10;2.70;;;;;;;-150.27;100.00;61272.81;5252133;28;20051;-74
2022/07/29 05:45:12;;;;;;;4.97;2.80;;;;;;;-150.27;100.00;61272.81;5255637;28;20024;-75
2022/07/29 05:47:44;;;;;;;7.27;3.20;;;;;;;-150.27;100.00;61272.81;5273271;28;20115;-75
2022/07/29 05:50:15;;;;;;;4.87;2.70;;;;;;;-150.27;100.00;61272.81;5273409;28;20483;-74
2022/07/29 05:52:46;;;;;;;6.57;3.27;;;;;;;-150.27;100.00;61272.81;5276129;28;20043;-75
2022/07/29 05:55:18;;;;;;;6.23;2.40;;;;;;;-150.27;100.00;61272.81;5273183;28;20032;-74
2022/07/29 05:57:49;;;;;;;4.77;2.90;;;;;;;-150.27;100.00;61272.81;5272652;28;20025;-72
2022/07/29 06:00:20;;;;;;;4.83;3.00;;;;;;;-150.27;100.00;61272.81;5271195;28;20028;-73
2022/07/29 06:02:52;;;;;;;6.90;2.53;;;;;;;-150.27;100.00;61272.81;5269621;28;20031;-73
2022/07/29 06:05:23;;;;;;;6.13;3.10;;;;;;;-150.27;100.00;61272.81;5272165;28;20024;-73
2022/07/29 06:07:54;;;;;;;5.10;3.03;;;;;;;-150.27;100.00;61272.81;5270947;28;20558;-74
2022/07/29 06:10:26;;;;;;;5.97;3.20;;;;;;;-150.27;100.00;61272.81;5269921;28;20539;-73
2022/07/29 06:12:57;;;;;;;9.03;3.50;;;;;;;-150.27;100.00;61272.81;5269464;28;20040;-75
2022/07/29 06:15:29;;;;;;;7.03;3.60;;;;;;;-150.27;100.00;61272.81;5269814;28;20120;-73
2022/07/29 06:18:00;;;;;;;6.60;3.37;;;;;;;-150.27;100.00;61272.81;5271701;28;20070;-73
2022/07/29 06:20:32;;;;;;;4.33;3.03;;;;;;;-150.27;100.00;61272.81;5270618;28;20036;-72
2022/07/29 06:23:04;;;;;;;7.43;3.30;;;;;;;-150.27;100.00;61272.81;5271564;28;20495;-73
2022/07/29 06:25:36;;;;;;;5.83;3.30;;;;;;;-150.27;100.00;61272.81;5286775;28;20490;-73
2022/07/29 06:28:08;;;;;;;10.87;4.13;;;;;;;-150.27;100.00;61272.81;5270823;28;20107;-73
2022/07/29 06:30:39;;;;;;;6.97;3.13;;;;;;;-150.27;100.00;61272.81;5269363;28;20062;-77
2022/07/29 06:33:18;;;;;;;8.03;3.97;;;;;;;-150.27;100.00;61272.81;5270434;28;20032;-74
2022/07/29 06:35:50;;;;;;;5.33;3.43;;;;;;;-150.27;100.00;61272.81;5270022;28;20033;-73
2022/07/29 06:38:21;;;;;;;7.70;3.50;;;;;;;-150.27;100.00;61272.81;5270462;28;20028;-73
2022/07/29 06:41:02;;;;;;;9.63;3.70;;;;;;;-150.27;100.00;61272.81;5268733;28;20036;-73
2022/07/29 06:43:37;;;;;;;8.57;3.80;;;;;;;-150.27;100.00;61272.81;5284545;28;20036;-73
2022/07/29 06:46:10;;;;;;;13.00;3.27;;;;;;;-150.27;100.00;61272.81;5271457;28;20487;-73
2022/07/29 06:48:42;;;;;;;5.93;3.38;;;;;;;-150.27;100.00;61272.81;5268767;28;20526;-74
2022/07/29 06:51:13;;;;;;;6.90;3.33;;;;;;;-150.27;100.00;61272.81;5272687;28;20028;-76
2022/07/29 06:53:44;;;;;;;8.17;3.93;;;;;;;-150.27;100.00;61272.81;5268754;28;20472;-74
2022/07/29 06:56:16;;;;;;;12.23;3.70;;;;;;;-150.27;100.00;61272.81;5271134;28;20016;-73
2022/07/29 06:58:47;;;;;;;7.90;3.80;;;;;;;-150.27;100.00;61272.81;5269734;28;20025;-74
2022/07/29 07:01:19;;;;;;;6.17;3.23;;;;;;;-150.27;100.00;61272.81;5270517;28;20029;-72
2022/07/29 07:03:50;;;;;;;7.03;3.83;;;;;;;-150.27;100.00;61272.81;5269345;28;20386;-73
2022/07/29 07:06:22;;;;;;;5.53;3.23;;;;;;;-150.27;100.00;61272.81;5270318;28;20032;-73
2022/07/29 07:08:53;;;;;;;4.23;3.27;;;;;;;-150.27;100.00;61272.81;5270601;28;20017;-73
2022/07/29 07:11:24;;;;;;;8.47;3.00;;;;;;;-150.27;100.00;61272.81;5285527;28;20544;-74
2022/07/29 07:13:56;;;;;;;12.13;4.10;;;;;;;-150.27;100.00;61272.81;5268112;28;20686;-74
2022/07/29 07:16:27;;;;;;;5.57;3.47;;;;;;;-150.27;100.00;61272.81;5270770;28;20024;-74
2022/07/29 07:18:59;;;;;;;5.70;3.60;;;;;;;-150.27;100.00;61272.81;5268123;28;20575;-74
2022/07/29 07:21:32;;;;;;;8.17;4.20;;;;;;;-150.27;100.00;61272.81;5270154;28;20032;-74
2022/07/29 07:24:04;;;;;;;9.17;3.53;;;;;;;-150.27;100.00;61272.81;5268343;28;20048;-74
2022/07/29 07:26:35;;;;;;;7.63;3.30;;;;;;;-150.27;100.00;61272.81;5270015;28;20162;-74
2022/07/29 07:29:07;;;;;;;8.57;3.50;;;;;;;-150.27;100.00;61272.81;5283873;28;20020;-74
2022/07/29 07:31:38;;;;;;;5.80;3.47;;;;;;;-150.27;100.00;61272.81;5267646;28;20044;-74
2022/07/29 07:34:09;;;;;;;6.70;3.27;;;;;;;-150.27;100.00;61272.81;5269365;28;20697;-75
2022/07/29 07:36:41;;;;;;;10.27;3.50;;;;;;;-150.27;100.00;61272.81;5270293;28;20089;-74
2022/07/29 07:39:12;;;;;;;5.33;2.87;;;;;;;-150.27;100.00;61272.81;5268602;28;20100;-74
2022/07/29 07:41:43;;;;;;;7.30;3.10;;;;;;;-150.27;100.00;61272.81;5265688;28;20126;-74
2022/07/29 07:44:15;;;;;;;3.78;2.90;;;;;;;-150.27;100.00;61272.81;5267846;28;20040;-73
2022/07/29 07:46:46;;;;;;;7.35;3.15;;;;;;;-150.27;100.00;61272.81;5267630;28;20032;-73
2022/07/29 07:49:17;;;;;;;5.88;2.85;;;;;;;-150.27;100.00;61272.81;5278554;28;20043;-74
2022/07/29 07:51:49;;;;;;;4.68;2.75;;;;;;;-150.27;100.00;61272.81;5279316;28;20051;-73
2022/07/29 07:54:20;;;;;;;7.82;2.50;;;;;;;-150.27;100.00;61272.81;5274968;28;20016;-73
2022/07/29 07:56:51;;;;;;;7.38;2.67;;;;;;;-150.27;100.00;61272.81;5274203;28;20029;-74
2022/07/29 07:59:23;;;;;;;8.68;2.67;;;;;;;-150.27;100.00;61272.81;5273949;28;20075;-74
2022/07/29 08:01:54;;;;;;;10.63;2.85;;;;;;;-150.27;100.00;61272.81;5276513;28;20032;-74
2022/07/29 08:04:26;;;;;;;8.18;2.47;;;;;;;-150.27;100.00;61272.81;5277067;28;20107;-74
2022/07/29 08:06:58;;;;;;;5.13;2.65;;;;;;;-150.27;100.00;61272.81;5274192;28;20028;-74
2022/07/29 08:09:29;;;;;;;5.55;2.85;;;;;;;-150.27;100.00;61272.81;5275347;28;20048;-74
2022/07/29 08:12:05;;;;;;;7.18;2.30;;;;;;;-150.27;100.00;61272.81;5274268;28;20443;-73
2022/07/29 08:14:36;;;;;;;9.20;2.53;;;;;;;-150.27;100.00;61272.81;5272580;28;20078;-72
2022/07/29 08:17:08;;;;;;;6.68;2.45;;;;;;;-150.27;100.00;61272.81;5275949;28;20051;-73
2022/07/29 08:19:39;;;;;;;4.90;2.40;;;;;;;-150.27;100.00;61272.81;5274724;28;20063;-75
2022/07/29 08:22:10;;;;;;;5.45;2.70;;;;;;;-150.27;100.00;61272.81;5276806;28;20102;-73
2022/07/29 08:24:52;;;;;;;5.18;2.83;;;;;;;-150.27;100.00;61272.81;5273598;28;20116;-73
2022/07/29 08:27:23;;;;;;;5.95;2.58;;;;;;;-150.27;100.00;61272.81;5273668;28;20040;-74
2022/07/29 08:29:55;;;;;;;3.97;2.20;;;;;;;-150.27;100.00;61272.81;5269549;28;20537;-73
2022/07/29 08:32:28;;;;;;;8.45;2.60;;;;;;;-150.27;100.00;61272.81;5274108;28;20043;-74
2022/07/29 08:35:00;;;;;;;8.60;2.38;;;;;;;-150.27;100.00;61272.81;5273923;28;20111;-74
2022/07/29 08:37:31;;;;;;;8.02;2.30;;;;;;;-150.27;100.00;61272.81;5276090;28;20158;-74
2022/07/29 08:40:03;;;;;;;10.63;2.88;;;;;;;-150.27;100.00;61272.81;5274472;28;20111;-74
2022/07/29 08:42:35;;;;;;;7.63;2.75;;;;;;;-150.27;100.00;61272.81;5273524;28;20089;-75
2022/07/29 08:45:07;;;;;;;8.65;2.75;;;;;;;-150.27;100.00;61272.81;5273577;28;20437;-74
2022/07/29 08:47:41;;;;;;;5.95;2.20;;;;;;;-150.27;100.00;61272.81;5270331;28;20020;-74
2022/07/29 08:50:13;;;;;;;4.45;1.95;;;;;;;-150.27;100.00;61272.81;5275147;28;20067;-74
2022/07/29 08:52:45;;;;;;;12.40;2.85;;;;;;;-150.27;100.00;61272.81;5275491;28;20048;-74
2022/07/29 08:55:17;;;;;;;8.55;2.30;;;;;;;-150.27;100.00;61272.81;5275868;28;20020;-74
2022/07/29 08:57:48;;;;;;;8.35;3.50;;;;;;;-150.27;100.00;61272.81;5273235;28;20031;-74
2022/07/29 09:00:22;;;;;;;5.88;2.50;;;;;;;-150.27;100.00;61272.81;5271857;28;20024;-74
2022/07/29 09:02:58;;;;;;;5.80;2.45;;;;;;;-150.27;100.00;61272.81;5272589;28;20104;-74
2022/07/29 09:05:30;;;;;;;11.07;2.35;;;;;;;-150.27;100.00;61272.81;5269131;28;20188;-74
2022/07/29 09:08:02;;;;;;;5.80;2.80;;;;;;;-150.27;100.00;61272.81;5270830;28;20083;-76
2022/07/29 09:10:35;;;;;;;7.20;2.10;;;;;;;-150.27;100.00;61272.81;5270835;28;20107;-75
2022/07/29 09:13:07;;;;;;;6.80;2.40;;;;;;;-150.27;100.00;61272.81;5284314;28;20124;-77
2022/07/29 09:15:38;;;;;;;3.85;2.17;;;;;;;-150.27;100.00;61272.81;5289586;28;20602;-74
2022/07/29 09:18:10;;;;;;;8.68;3.58;;;;;;;-150.27;100.00;61272.81;5272889;28;20059;-75
2022/07/29 09:24:03;;;;;;;5.88;2.33;;;;;;;-150.27;100.00;61272.81;5270009;28;20491;-76
2022/07/29 09:26:45;;;;;;;2.97;1.67;;;;;;;-150.27;100.00;61272.81;5278012;28;20037;-75
2022/07/29 09:29:22;;;;;;;5.65;2.40;;;;;;;-150.27;100.00;61272.81;5270901;28;20519;-73
2022/07/29 09:31:54;;;;;;;3.25;1.95;;;;;;;-150.27;100.00;61272.81;5294246;28;20043;-73
2022/07/29 09:34:29;;;;;;;5.72;2.17;;;;;;;-150.27;100.00;61272.81;5293406;28;20535;-72
2022/07/29 09:37:00;;;;;;;6.78;2.20;;;;;;;-150.27;100.00;61272.81;5276211;28;20077;-74
2022/07/29 09:39:32;;;;;;;4.50;2.50;;;;;;;-150.27;100.00;61272.81;5271468;28;20016;-74
2022/07/29 09:42:05;;;;;;;7.60;2.00;;;;;;;-150.27;100.00;61272.81;5272057;28;20502;-72
2022/07/29 09:44:45;;;;;;;5.82;2.08;;;;;;;-150.27;100.00;61272.81;5271160;28;20029;-73
2022/07/29 09:47:18;;;;;;;5.05;2.35;;;;;;;-150.27;100.00;61272.81;5271999;28;20028;-74
2022/07/29 09:49:53;;;;;;;4.93;2.75;;;;;;;-150.27;100.00;61272.81;5279655;28;20024;-73
2022/07/29 09:52:25;;;;;;;4.45;1.90;;;;;;;-150.27;100.00;61272.81;5269207;28;20072;-73
2022/07/29 09:55:08;;;;;;;10.23;2.97;;;;;;;-150.27;100.00;61272.81;5285569;28;20710;-73
2022/07/29 09:57:40;;;;;;;5.10;2.22;;;;;;;-150.27;100.00;61272.81;5269185;28;20614;-76
2022/07/29 10:00:11;;;;;;;4.00;1.55;;;;;;;-150.27;100.00;61272.81;5269063;28;20110;-74
2022/07/29 10:02:45;;;;;;;7.63;2.08;;;;;;;-150.27;100.00;61272.81;5269834;28;20646;-74
2022/07/29 10:05:25;;;;;;;6.47;2.47;;;;;;;-150.27;100.00;61272.81;5271241;28;20108;-74
2022/07/29 10:07:57;;;;;;;6.90;2.53;;;;;;;-150.27;100.00;61272.81;5271459;28;20684;-73
2022/07/29 10:10:35;;;;;;;6.22;2.50;;;;;;;-150.27;100.00;61272.81;5272231;28;20714;-74
2022/07/29 10:13:14;;;;;;;9.88;2.92;;;;;;;-150.27;100.00;61272.81;5269100;28;20158;-73
2022/07/29 10:15:46;;;;;;;4.50;2.03;;;;;;;-150.27;100.00;61272.81;5269297;28;20036;-74
2022/07/29 10:18:19;;;;;;;5.60;2.00;;;;;;;-150.27;100.00;61272.81;5265725;28;20021;-78
2022/07/29 10:20:51;;;;;;;8.63;2.20;;;;;;;-150.27;100.00;61272.81;5271958;28;20151;-77
2022/07/29 10:23:24;;;;;;;7.80;2.63;;;;;;;-150.27;100.00;61272.81;5271311;28;20566;-73
2022/07/29 10:25:57;;;;;;;5.57;2.55;;;;;;;-150.27;100.00;61272.81;5269594;28;20020;-71
2022/07/29 10:28:32;;;;;;;6.57;2.10;;;;;;;-150.27;100.00;61272.81;5269502;28;20020;-76
2022/07/29 10:31:08;;;;;;;10.20;2.10;;;;;;;-150.27;100.00;61272.81;5267167;28;20099;-74
2022/07/29 10:34:07;;;;;;;5.60;2.10;;;;;;;-150.27;100.00;61272.81;5271698;28;20031;-78
2022/07/29 10:37:18;;;;;;;3.90;1.95;;;;;;;-150.27;100.00;61272.81;5271407;28;20035;-70
2022/07/29 10:41:26;;;;;;;5.15;2.08;;;;;;;-150.27;100.00;61272.81;5266018;28;20028;-76
2022/07/29 10:43:14;;;;;;;4.43;2.17;;;;;;;-150.27;100.00;61272.81;5272713;28;20040;-72
2022/07/29 10:45:49;;;;;;;8.88;2.33;;;;;;;-150.27;100.00;61272.81;5272394;28;20475;-73
2022/07/29 10:48:21;;;;;;;6.13;2.63;;;;;;;-150.27;100.00;61272.81;5265322;28;20712;-74
2022/07/29 10:51:03;;;;;;;6.90;2.17;;;;;;;-150.27;100.00;61272.81;5263107;28;20155;-73
2022/07/29 10:53:53;;;;;;;6.28;2.03;;;;;;;-150.27;100.00;61272.81;5263312;28;20029;-72
2022/07/29 10:56:26;;;;;;;5.85;2.63;;;;;;;-150.27;100.00;61272.81;5248492;28;20119;-74
2022/07/29 10:59:20;;;;;;;7.15;2.53;;;;;;;-150.27;100.00;61272.81;5246980;28;20379;-74
2022/07/29 11:02:02;;;;;;;8.02;2.20;;;;;;;-150.27;100.00;61272.81;5247418;28;20871;-74
2022/07/29 11:04:43;;;;;;;9.55;2.85;;;;;;;-150.27;100.00;61272.81;5246848;28;20056;-74
2022/07/29 11:07:16;;;;;;;9.30;2.50;;;;;;;-150.27;100.00;61272.81;5245809;28;20381;-71
2022/07/29 11:10:12;;;;;;;5.57;1.92;;;;;;;-150.27;100.00;61272.81;5248269;28;20597;-75
2022/07/29 11:12:44;;;;;;;8.85;2.28;;;;;;;-150.27;100.00;61272.81;5258992;28;20476;-74
2022/07/29 11:15:21;;;;;;;8.32;2.30;;;;;;;-150.27;100.00;61272.81;5247321;28;20194;-71
2022/07/29 11:17:53;;;;;;;6.45;2.30;;;;;;;-150.27;100.00;61272.81;5247949;28;20306;-76
2022/07/29 11:20:57;;;;;;;6.93;2.33;;;;;;;-150.27;100.00;61272.81;5249184;28;20420;-75
2022/07/29 11:23:31;;;;;;;5.32;1.73;;;;;;;-150.27;100.00;61272.81;5246576;28;20017;-73
2022/07/29 11:26:15;;;;;;;8.48;2.00;;;;;;;-150.27;100.00;61272.81;5260861;28;20033;-74
2022/07/29 11:28:51;;;;;;;9.48;2.17;;;;;;;-150.27;100.00;61272.81;5245723;28;20483;-72
2022/07/29 11:31:34;;;;;;;4.25;1.95;;;;;;;-150.27;100.00;61272.81;5247770;28;20361;-75
2022/07/29 11:34:29;;;;;;;5.70;2.10;;;;;;;-150.27;100.00;61272.81;5249383;28;20387;-74
2022/07/29 11:37:06;;;;;;;7.53;2.50;;;;;;;-150.27;100.00;61272.81;5249323;28;20641;-72
2022/07/29 11:39:56;;;;;;;5.18;2.33;;;;;;;-150.27;100.00;61272.81;5249302;28;20093;-77
2022/07/29 11:42:27;;;;;;;3.67;2.00;;;;;;;-150.27;100.00;61272.81;5260940;28;20573;-75
2022/07/29 11:45:05;;;;;;;8.15;2.05;;;;;;;-150.27;100.00;61272.81;5252938;28;20187;-77
2022/07/29 11:47:46;;;;;;;5.68;1.85;;;;;;;-150.27;100.00;61272.81;5241408;28;20426;-70